• Join FlightAware (Why Join?)
  • Login
  • US Flag 
08:50AM EST


 

Airport Tracker/Info


-or-


 

Live Flight TrackerFlight Track Log ✈ PDT4155 ✈ 14-Dec-2013 ✈ KBGM - KPHL

Flight Track Log - Related Links

Times and Time Zones

All times are in EST time to prevent confusion due to time zone crossing. See the PDT4155 flight status page for this flight to view local times or setup timezone preferences in your user account.

Time Position Orientation Groundspeed Altitude Reporting Facility
EST Latitude Longitude Course Direction KTS MPH feet Rate Location/Type
07:23AM 42.0114 -75.9152 180° South  Level Estimated
07:23AM 42.1147 -75.9372 159° South 148 170 5,400  Level New York Center
07:24AM 41.9439 -75.9199 183° South  Level FlightAware Approximate
07:24AM 42.0686 -75.9192 164° South 165 190 6,900  Level New York Center
07:25AM 41.8763 -75.9246 183° South  Level FlightAware Approximate
07:25AM 42.0200 -75.9033 166° South 176 203 8,000  Level New York Center
07:26AM 41.8110 -75.9016 154° Southeast  Level Estimated
07:26AM 41.9583 -75.8861 168° South 221 254 8,000  Level New York Center
07:27AM 41.7505 -75.8803 160° South  Level Estimated
07:27AM 41.8986 -75.8706 169° South 227 261 8,000  Level New York Center
07:28AM 41.6900 -75.8592 159° South  Level Estimated
07:28AM 41.8336 -75.8558 170° South 228 262 8,000  Level New York Center
07:29AM 41.7689 -75.8353 167° South 228 262 8,000  Level New York Center
07:30AM 41.7042 -75.8106 164° South 230 265 8,000  Level New York Center
07:31AM 41.6456 -75.7875 164° South 228 262 8,000  Level New York Center
07:32AM 41.5819 -75.7625 164° South 228 262 8,000  Level New York Center
07:33AM 41.5281 -75.7414 164° South 231 266 8,000  Level New York Center
07:34AM 41.4700 -75.7178 163° South 227 261 8,000  Level New York Center
07:35AM 41.4072 -75.6939 164° South 231 266 8,000  Level New York Center
07:36AM 41.3328 -75.6694 166° South 230 265 8,000  Level New York Center
07:37AM 41.2697 -75.6556 171° South 230 265 8,000  Level New York Center
07:38AM 41.2069 -75.6542 179° South 225 259 8,000  Level New York Center
07:39AM 41.1403 -75.6492 177° South 228 262 8,000  Level New York Center
07:40AM 41.0744 -75.6439 177° South 227 261 8,000  Level New York Center
07:41AM 41.0142 -75.6367 175° South 226 260 8,000  Level New York Center
07:42AM 40.9469 -75.6292 175° South 226 260 8,000  Level New York Center
07:43AM 40.8872 -75.6219 175° South 224 258 8,000  Level New York Center
07:44AM 40.8239 -75.6167 176° South 220 253 8,000 -98 Level New York Center
07:45AM 40.7597 -75.6117 177° South 221 254 7,800 -443 Descending New York Center
07:46AM 40.6922 -75.6050 176° South 234 269 7,100 -639 Descending New York Center
07:47AM 40.6300 -75.5978 175° South 235 270 6,500 -683 Descending New York Center
07:48AM 40.5628 -75.5883 174° South 235 270 5,700 -732 Descending New York Center
07:49AM 40.4961 -75.5689 167° South 235 270 5,000 -344 Descending New York Center
07:50AM 40.4322 -75.5511 168° South 227 261 5,000 -49 Level New York Center
07:51AM 40.3753 -75.5353 168° South 220 253 4,900  Descending New York Center
07:52AM 40.3142 -75.5169 167° South 216 249 5,000  Climbing New York Center
07:53AM 40.2522 -75.4978 167° South 219 252 4,900 -246 Descending New York Center
07:54AM 40.1939 -75.4761 164° South 226 260 4,500 -492 Descending New York Center
07:55AM 40.1278 -75.4489 163° South 231 266 3,900 -293 Descending New York Center
07:56AM 40.0694 -75.4256 163° South 221 254 3,900  Level New York Center
07:57AM 40.0122 -75.4017 162° South 216 249 3,900  Level New York Center
07:58AM 39.9561 -75.3781 162° South 214 246 3,900  Level New York Center
07:59AM 39.9000 -75.3500 159° South 213 245 3,900  Level Philadelphia TRACON
08:00AM 39.8500 -75.3333 166° South 214 246 3,900 -600 Level Philadelphia TRACON
08:01AM 39.8000 -75.3000 153° Southeast 194 223 2,700 -1,048 Descending Philadelphia TRACON
08:02AM 39.8000 -75.2333 90° East 193 222 1,700 -750 Descending Philadelphia TRACON
08:03AM 39.8333 -75.2167 21° North 131 151 1,200 -789 Descending Philadelphia TRACON
08:04AM 39.8667 -75.2167 360° North 113 130 200 -1,000 Descending Philadelphia TRACON